Time;durP1;ratioP1;P1;durP2;ratioP2;P2;SDS_P1;SDS_P2;PMS_P1;PMS_P2;Temp;Humidity;BMP_temperature;BMP_pressure;BME280_temperature;BME280_humidity;BME280_pressure;Samples;Min_cycle;Max_cycle;Signal;HPM_P1;HPM_P2
2021/11/04 00:01:59;;;;;;;;;;;;;;;30.49;67.21;100898.72;5071139;27;69856;-39
2021/11/04 00:04:29;;;;;;;;;;;;;;;30.54;67.35;100892.69;4984944;27;66685;-39
2021/11/04 00:07:02;;;;;;;;;;;;;;;30.56;68.11;100909.50;4982116;27;69483;-39
2021/11/04 00:09:37;;;;;;;;;;;;;;;30.57;67.68;100907.66;4985795;27;65363;-39
2021/11/04 00:12:08;;;;;;;;;;;;;;;30.52;68.30;100921.84;4992395;27;70043;-42
2021/11/04 00:14:39;;;;;;;;;;;;;;;30.54;68.65;100924.34;4987397;27;67066;-40
2021/11/04 00:17:09;;;;;;;;;;;;;;;30.57;68.28;100930.13;4983107;27;70608;-40
2021/11/04 00:19:40;;;;;;;;;;;;;;;30.60;68.39;100935.13;4987668;28;66988;-40
2021/11/04 00:22:11;;;;;;;;;;;;;;;30.59;69.28;100949.72;4989834;27;70052;-41
2021/11/04 00:24:43;;;;;;;;;;;;;;;30.53;69.37;100949.72;4986017;27;65459;-40
2021/11/04 00:27:13;;;;;;;;;;;;;;;30.56;69.69;100947.41;4982273;27;70586;-41
2021/11/04 00:29:49;;;;;;;;;;;;;;;30.49;69.57;100962.88;4988851;28;66422;-40
2021/11/04 00:32:25;;;;;;;;;;;;;;;30.34;69.79;100970.41;5003415;27;69583;-40
2021/11/04 00:35:22;;;;;;;;;;;;;;;30.31;70.23;100973.56;5055163;28;67173;-40
2021/11/04 00:38:16;;;;;;;;;;;;;;;30.30;69.97;100974.63;5055761;28;69690;-41
2021/11/04 00:40:53;;;;;;;;;;;;;;;30.32;69.58;100986.06;5054357;28;66555;-41
2021/11/04 00:43:47;;;;;;;;;;;;;;;30.33;69.18;100982.31;5052027;28;70316;-41
2021/11/04 00:46:24;;;;;;;;;;;;;;;30.34;68.67;100986.66;5052285;28;66355;-40
2021/11/04 00:49:21;;;;;;;;;;;;;;;30.36;69.02;100992.69;5028443;28;69786;-40
2021/11/04 00:51:57;;;;;;;;;;;;;;;30.37;68.44;100991.63;5034627;28;66648;-40
2021/11/04 00:54:54;;;;;;;;;;;;;;;30.38;67.91;101001.44;5027070;28;69834;-40
2021/11/04 00:57:48;;;;;;;;;;;;;;;30.31;67.28;100995.19;5051701;28;66811;-41
2021/11/04 01:00:48;;;;;;;;;;;;;;;30.41;67.20;101017.25;5047019;28;70707;-40
2021/11/04 01:03:39;;;;;;;;;;;;;;;30.43;67.40;101018.69;5032634;28;66014;-40
2021/11/04 01:06:27;;;;;;;;;;;;;;;30.44;66.99;101014.09;5046343;28;70317;-40
2021/11/04 01:09:43;;;;;;;;;;;;;;;30.44;66.74;101022.22;5049588;28;66426;-40
2021/11/04 01:12:42;;;;;;;;;;;;;;;30.45;66.49;101018.47;5002638;27;69032;-41
2021/11/04 01:15:29;;;;;;;;;;;;;;;30.46;66.77;101025.56;4989813;27;66325;-41
2021/11/04 01:18:17;;;;;;;;;;;;;;;30.47;66.44;101027.22;4976540;27;70171;-41
2021/11/04 01:21:01;;;;;;;;;;;;;;;30.49;66.11;101031.38;4990434;27;65466;-41
2021/11/04 01:23:45;;;;;;;;;;;;;;;30.50;65.94;101032.19;4985831;27;70880;-41
2021/11/04 01:26:26;;;;;;;;;;;;;;;30.53;65.57;101036.34;4996164;27;66527;-40
2021/11/04 01:29:16;;;;;;;;;;;;;;;30.54;65.87;101033.44;4995248;27;69395;-40
2021/11/04 01:32:15;;;;;;;;;;;;;;;30.55;66.04;101045.91;4998281;27;66849;-41
2021/11/04 01:34:57;;;;;;;;;;;;;;;30.57;65.36;101043.00;4997917;27;70803;-41
2021/11/04 01:38:03;;;;;;;;;;;;;;;30.58;65.67;101056.31;4985570;27;66601;-41
2021/11/04 01:40:51;;;;;;;;;;;;;;;30.60;65.20;101056.94;5014789;27;69798;-41
2021/11/04 01:44:02;;;;;;;;;;;;;;;30.62;65.11;101063.00;4999202;27;66097;-41
2021/11/04 01:47:20;;;;;;;;;;;;;;;30.64;65.55;101063.56;4999076;27;70312;-40
2021/11/04 01:50:22;;;;;;;;;;;;;;;30.66;65.40;101066.09;4982165;27;65264;-41
2021/11/04 01:53:12;;;;;;;;;;;;;;;30.68;64.79;101066.72;4985336;28;69229;-40
2021/11/04 01:56:00;;;;;;;;;;;;;;;30.70;64.74;101073.56;4999943;27;65512;-48
2021/11/04 01:58:46;;;;;;;;;;;;;;;30.71;64.71;101075.22;4979336;27;69280;-41
2021/11/04 02:01:52;;;;;;;;;;;;;;;30.72;64.87;101071.47;4978783;27;66848;-40
2021/11/04 02:05:06;;;;;;;;;;;;;;;30.76;64.34;101071.88;5014916;27;70410;-41
2021/11/04 02:08:23;;;;;;;;;;;;;;;30.79;64.63;101073.34;4988261;27;66452;-40
2021/11/04 02:11:16;;;;;;;;;;;;;;;30.80;64.39;101072.31;5063704;27;70358;-40
2021/11/04 02:14:07;;;;;;;;;;;;;;;30.83;63.50;101080.00;5057335;27;67304;-39
2021/11/04 02:16:49;;;;;;;;;;;;;;;30.85;64.02;101077.91;4985119;27;69494;-40
2021/11/04 02:19:47;;;;;;;;;;;;;;;30.86;63.40;101068.72;4989243;27;66627;-41
2021/11/04 02:22:58;;;;;;;;;;;;;;;30.89;63.68;101073.72;4976001;27;69135;-41
2021/11/04 02:25:44;;;;;;;;;;;;;;;30.92;63.63;101086.81;4989160;27;66082;-40
2021/11/04 02:28:38;;;;;;;;;;;;;;;30.93;63.28;101078.50;4985493;27;70394;-41
2021/11/04 02:31:24;;;;;;;;;;;;;;;30.96;63.15;101087.25;4990173;27;66271;-40
2021/11/04 02:34:05;;;;;;;;;;;;;;;30.97;63.02;101081.59;5056015;27;69097;-40
2021/11/04 02:36:58;;;;;;;;;;;;;;;30.97;63.15;101073.47;4991543;27;67263;-40
2021/11/04 02:39:43;;;;;;;;;;;;;;;31.02;62.92;101070.94;5086490;27;69584;-42
2021/11/04 02:42:27;;;;;;;;;;;;;;;31.03;63.19;101080.72;4979591;27;65820;-43
2021/11/04 02:45:05;;;;;;;;;;;;;;;31.05;62.86;101075.94;5075813;27;70806;-41
2021/11/04 02:47:49;;;;;;;;;;;;;;;31.03;62.44;101069.88;4981439;27;66406;-41
2021/11/04 02:50:51;;;;;;;;;;;;;;;31.09;63.07;101079.88;4987791;27;62973;-41
2021/11/04 02:53:35;;;;;;;;;;;;;;;31.12;62.86;101078.59;4987024;27;66516;-41
2021/11/04 02:56:22;;;;;;;;;;;;;;;31.13;62.19;101075.66;4991796;27;69056;-40
2021/11/04 02:59:17;;;;;;;;;;;;;;;31.16;62.60;101086.06;4994493;27;65565;-41
2021/11/04 03:01:59;;;;;;;;;;;;;;;31.17;62.67;101087.75;4973794;27;69935;-41
2021/11/04 03:04:32;;;;;;;;;;;;;;;31.22;62.60;101086.25;4986024;27;65459;-40
2021/11/04 03:07:15;;;;;;;;;;;;;;;31.25;62.49;101085.81;4975726;27;69022;-40
2021/11/04 03:10:04;;;;;;;;;;;;;;;31.26;62.41;101079.34;4980651;27;66105;-40
2021/11/04 03:12:48;;;;;;;;;;;;;;;31.29;62.25;101084.34;4982370;27;70214;-41
2021/11/04 03:15:47;;;;;;;;;;;;;;;31.31;61.58;101082.22;4989887;27;66604;-41
2021/11/04 03:18:33;;;;;;;;;;;;;;;31.33;61.93;101074.72;5000567;27;69331;-41
2021/11/04 03:21:08;;;;;;;;;;;;;;;31.36;61.52;101071.59;4986944;27;65682;-40
2021/11/04 03:23:53;;;;;;;;;;;;;;;31.38;61.42;101067.63;4988510;27;70044;-41
2021/11/04 03:26:30;;;;;;;;;;;;;;;31.41;61.00;101066.34;4989552;27;65932;-41
2021/11/04 03:29:02;;;;;;;;;;;;;;;31.43;61.67;101064.25;4988881;27;70782;-41
2021/11/04 03:31:42;;;;;;;;;;;;;;;31.46;61.91;101071.94;4991138;27;66017;-41
2021/11/04 03:34:25;;;;;;;;;;;;;;;31.47;61.05;101054.63;4984294;27;69562;-41
2021/11/04 03:37:08;;;;;;;;;;;;;;;31.51;61.66;101061.28;5007028;27;65704;-41
2021/11/04 03:39:51;;;;;;;;;;;;;;;31.53;61.02;101059.16;4989100;27;70957;-41
2021/11/04 03:42:25;;;;;;;;;;;;;;;31.56;60.85;101047.88;4989474;27;66085;-41
2021/11/04 03:45:01;;;;;;;;;;;;;;;31.58;61.21;101043.06;4988634;27;69494;-41
2021/11/04 03:47:45;;;;;;;;;;;;;;;31.55;61.23;101027.25;5000072;27;66123;-39
2021/11/04 03:50:18;;;;;;;;;;;;;;;31.63;61.04;101039.69;4992137;27;70432;-39
2021/11/04 03:52:49;;;;;;;;;;;;;;;31.65;61.16;101028.63;4981600;27;65730;-39
2021/11/04 03:55:22;;;;;;;;;;;;;;;31.67;61.38;101021.91;4996209;27;70017;-39
2021/11/04 03:57:54;;;;;;;;;;;;;;;31.68;61.29;101020.03;4997761;27;66411;-39
2021/11/04 04:00:24;;;;;;;;;;;;;;;31.71;60.94;101016.91;4984125;27;70219;-38
2021/11/04 04:03:05;;;;;;;;;;;;;;;31.68;61.12;101006.47;4979231;27;67054;-40
2021/11/04 04:05:40;;;;;;;;;;;;;;;31.75;61.08;101007.25;4986103;27;70127;-38
2021/11/04 04:08:16;;;;;;;;;;;;;;;31.76;61.11;101008.91;4988401;27;66546;-39
2021/11/04 04:10:46;;;;;;;;;;;;;;;31.77;61.12;100995.13;4990575;27;69275;-39
2021/11/04 04:13:30;;;;;;;;;;;;;;;31.79;60.76;100997.63;4981291;27;65409;-39
2021/11/04 04:16:01;;;;;;;;;;;;;;;31.81;60.92;100990.91;4983002;27;70102;-38
2021/11/04 04:18:36;;;;;;;;;;;;;;;31.85;60.48;101002.16;4990129;27;66111;-38
2021/11/04 04:21:09;;;;;;;;;;;;;;;31.85;60.49;100991.31;4979197;27;69379;-39
2021/11/04 04:23:42;;;;;;;;;;;;;;;31.87;60.59;100981.03;4990577;27;65517;-39
2021/11/04 04:26:14;;;;;;;;;;;;;;;31.89;60.52;100970.78;4984344;27;70020;-39
2021/11/04 04:28:51;;;;;;;;;;;;;;;31.90;60.45;100977.91;4988729;27;66475;-39
2021/11/04 04:31:24;;;;;;;;;;;;;;;31.92;60.66;100969.53;4996663;27;70129;-39
2021/11/04 04:33:56;;;;;;;;;;;;;;;31.92;60.16;100970.38;5091094;27;65939;-38
2021/11/04 04:36:29;;;;;;;;;;;;;;;31.94;60.46;100957.41;5029493;27;69911;-39
2021/11/04 04:39:00;;;;;;;;;;;;;;;31.95;60.13;100953.63;5051654;27;66089;-39
2021/11/04 04:41:33;;;;;;;;;;;;;;;31.97;60.18;100950.72;5095588;27;69968;-39
2021/11/04 04:44:12;;;;;;;;;;;;;;;31.97;59.91;100946.13;5091877;27;66690;-37
2021/11/04 04:46:53;;;;;;;;;;;;;;;31.98;60.34;100953.22;5014752;27;69835;-39
2021/11/04 04:49:29;;;;;;;;;;;;;;;31.99;60.33;100944.00;5052735;27;66507;-39
2021/11/04 04:51:59;;;;;;;;;;;;;;;32.01;60.07;100936.47;5049228;27;69880;-39
2021/11/04 04:54:34;;;;;;;;;;;;;;;32.02;59.77;100932.69;5074762;27;66666;-39
2021/11/04 04:57:05;;;;;;;;;;;;;;;32.05;60.29;100932.25;4987026;27;71030;-39
2021/11/04 04:59:38;;;;;;;;;;;;;;;32.07;59.86;100923.03;5001802;27;65872;-39
2021/11/04 05:02:09;;;;;;;;;;;;;;;32.08;60.22;100919.28;5004070;27;68966;-39
2021/11/04 05:04:41;;;;;;;;;;;;;;;32.10;60.06;100914.47;5081713;27;67082;-39
2021/11/04 05:07:15;;;;;;;;;;;;;;;32.13;60.07;100916.72;5044389;27;70501;-39
2021/11/04 05:09:47;;;;;;;;;;;;;;;32.15;59.89;100909.16;5005539;27;66683;-39
2021/11/04 05:12:18;;;;;;;;;;;;;;;32.16;59.87;100908.13;5004116;27;70834;-39
2021/11/04 05:14:50;;;;;;;;;;;;;;;32.18;59.74;100898.69;5066235;27;67167;-39
2021/11/04 05:17:21;;;;;;;;;;;;;;;32.19;59.62;100883.22;4987380;27;70862;-39
2021/11/04 05:19:52;;;;;;;;;;;;;;;32.21;59.77;100881.13;5010616;27;66449;-38
2021/11/04 05:22:42;;;;;;;;;;;;;;;32.19;60.07;100872.38;5002530;27;71224;-40
2021/11/04 05:25:12;;;;;;;;;;;;;;;32.25;59.90;100877.72;5014214;27;65698;-39
2021/11/04 05:27:47;;;;;;;;;;;;;;;32.27;59.73;100874.78;5039321;27;70540;-40
2021/11/04 05:30:20;;;;;;;;;;;;;;;32.27;59.97;100867.44;5039502;27;66209;-38
2021/11/04 05:32:51;;;;;;;;;;;;;;;32.30;59.76;100874.31;5002341;27;70227;-40
2021/11/04 05:35:21;;;;;;;;;;;;;;;32.31;59.76;100865.09;4998589;27;65629;-40
2021/11/04 05:37:52;;;;;;;;;;;;;;;32.34;59.76;100858.38;4989498;28;68982;-39
2021/11/04 05:40:27;;;;;;;;;;;;;;;32.36;59.49;100856.28;5018474;27;67000;-39
2021/11/04 05:42:57;;;;;;;;;;;;;;;32.37;59.71;100858.75;5001136;27;70686;-39
2021/11/04 05:45:31;;;;;;;;;;;;;;;32.40;59.89;100846.59;5026912;27;65487;-39
2021/11/04 05:48:05;;;;;;;;;;;;;;;32.41;59.53;100853.69;5002550;27;69152;-39
2021/11/04 05:50:35;;;;;;;;;;;;;;;32.44;59.27;100843.19;5028009;27;66758;-39
2021/11/04 05:53:07;;;;;;;;;;;;;;;32.45;59.63;100838.59;4999120;27;69146;-39
2021/11/04 05:55:39;;;;;;;;;;;;;;;32.47;59.10;100837.31;5012584;27;65691;-39
2021/11/04 05:58:10;;;;;;;;;;;;;;;32.47;59.41;100831.91;5074551;27;70106;-40
2021/11/04 06:00:41;;;;;;;;;;;;;;;32.51;59.47;100836.84;5055977;27;65510;-38
2021/11/04 06:03:13;;;;;;;;;;;;;;;32.53;59.36;100824.72;5094794;27;71280;-40
2021/11/04 06:05:45;;;;;;;;;;;;;;;32.55;58.96;100819.06;5096332;27;66679;-39
2021/11/04 06:08:15;;;;;;;;;;;;;;;32.57;59.28;100819.63;5093232;27;70280;-38
2021/11/04 06:10:52;;;;;;;;;;;;;;;32.58;59.11;100815.88;5024700;27;66013;-38
2021/11/04 06:13:23;;;;;;;;;;;;;;;32.61;59.17;100810.78;5062670;27;69865;-39
2021/11/04 06:15:54;;;;;;;;;;;;;;;32.64;59.09;100804.06;5006218;27;65672;-38
2021/11/04 06:18:35;;;;;;;;;;;;;;;32.66;58.95;100799.22;5064751;27;70305;-39
2021/11/04 06:21:09;;;;;;;;;;;;;;;32.68;59.04;100787.09;5003628;27;67420;-38
2021/11/04 06:23:42;;;;;;;;;;;;;;;32.70;59.17;100782.22;5029974;27;69773;-40
2021/11/04 06:26:14;;;;;;;;;;;;;;;32.64;59.15;100766.03;5048606;27;66492;-40
2021/11/04 06:28:45;;;;;;;;;;;;;;;32.74;59.20;100777.16;5059779;27;70138;-39
2021/11/04 06:31:17;;;;;;;;;;;;;;;32.76;59.00;100775.00;5026852;27;65531;-39
2021/11/04 06:33:51;;;;;;;;;;;;;;;32.77;58.71;100776.69;5029619;27;70405;-39
2021/11/04 06:36:21;;;;;;;;;;;;;;;32.78;59.20;100762.03;5074859;27;66447;-38
2021/11/04 06:38:59;;;;;;;;;;;;;;;32.81;59.10;100756.13;5085922;27;70588;-39
2021/11/04 06:41:34;;;;;;;;;;;;;;;32.83;59.02;100748.56;5025147;27;66699;-39
2021/11/04 06:44:05;;;;;;;;;;;;;;;32.85;58.88;100740.19;5042698;27;70350;-39
2021/11/04 06:46:37;;;;;;;;;;;;;;;32.88;58.44;100740.53;4997400;28;64992;-39
2021/11/04 06:49:12;;;;;;;;;;;;;;;32.89;58.57;100734.03;5047019;27;69888;-39
2021/11/04 06:51:44;;;;;;;;;;;;;;;32.92;58.53;100736.28;5049441;27;65989;-39
2021/11/04 06:54:15;;;;;;;;;;;;;;;32.94;58.34;100734.16;5065500;27;71839;-40
2021/11/04 06:56:47;;;;;;;;;;;;;;;32.98;58.67;100728.25;5074140;27;66722;-39
2021/11/04 06:59:22;;;;;;;;;;;;;;;33.00;58.29;100716.09;5004545;27;70493;-38
2021/11/04 07:01:57;;;;;;;;;;;;;;;33.05;58.33;100718.09;5056046;27;65641;-39
2021/11/04 07:04:29;;;;;;;;;;;;;;;33.06;58.35;100714.31;5001242;27;70886;-39
2021/11/04 07:07:18;;;;;;;;;;;;;;;33.08;58.06;100702.16;5006001;27;66135;-39
2021/11/04 07:09:49;;;;;;;;;;;;;;;33.13;57.95;100709.59;5067980;27;69432;-39
2021/11/04 07:12:32;;;;;;;;;;;;;;;33.18;58.14;100711.56;4997334;27;66772;-39
2021/11/04 07:15:05;;;;;;;;;;;;;;;33.21;57.92;100711.09;5009202;27;70055;-39
2021/11/04 07:17:39;;;;;;;;;;;;;;;33.23;58.12;100704.34;4985336;27;65848;-39
2021/11/04 07:20:12;;;;;;;;;;;;;;;33.28;57.61;100698.19;5015081;27;70506;-39
2021/11/04 07:22:55;;;;;;;;;;;;;;;33.18;57.56;100679.78;4978581;27;65779;-38
2021/11/04 07:25:31;;;;;;;;;;;;;;;33.34;57.43;100695.31;5044356;27;69102;-38
2021/11/04 07:28:16;;;;;;;;;;;;;;;33.38;57.26;100698.41;5046817;27;66470;-38
2021/11/04 07:31:01;;;;;;;;;;;;;;;33.41;57.28;100697.09;4987782;27;68740;-39
2021/11/04 07:33:34;;;;;;;;;;;;;;;33.44;57.53;100691.19;5002251;27;65845;-38
2021/11/04 07:36:17;;;;;;;;;;;;;;;33.50;57.25;100687.47;4971137;28;69637;-39
2021/11/04 07:39:00;;;;;;;;;;;;;;;33.53;56.85;100684.31;5047095;27;66341;-38
2021/11/04 07:41:32;;;;;;;;;;;;;;;33.56;56.74;100681.09;4991451;27;69830;-39
2021/11/04 07:44:16;;;;;;;;;;;;;;;33.58;56.76;100682.50;5016973;27;66907;-38
2021/11/04 07:46:53;;;;;;;;;;;;;;;33.63;56.50;100672.78;5013390;27;69957;-39
2021/11/04 07:49:25;;;;;;;;;;;;;;;33.64;56.56;100677.97;5000580;27;66895;-38
2021/11/04 07:52:21;;;;;;;;;;;;;;;33.69;56.59;100663.66;5090167;27;43659;-41
2021/11/04 07:55:03;;;;;;;;;;;;;;;33.72;56.24;100663.16;5076902;27;68883;-41
2021/11/04 07:57:36;;;;;;;;;;;;;;;33.74;56.01;100672.72;5092570;27;66801;-39
2021/11/04 08:00:22;;;;;;;;;;;;;;;33.76;55.79;100659.69;5080556;27;69628;-39
2021/11/04 08:03:05;;;;;;;;;;;;;;;33.81;55.82;100656.25;5089922;27;66017;-39
2021/11/04 08:05:40;;;;;;;;;;;;;;;33.85;55.75;100653.84;5092168;27;70053;-39
2021/11/04 08:08:22;;;;;;;;;;;;;;;33.85;55.90;100657.41;5083809;27;67114;-40
2021/11/04 08:10:58;;;;;;;;;;;;;;;33.88;55.69;100659.66;5079992;27;69411;-39
2021/11/04 08:13:40;;;;;;;;;;;;;;;33.91;55.16;100661.06;5058084;27;66097;-39
2021/11/04 08:16:19;;;;;;;;;;;;;;;33.94;55.13;100666.00;5071487;27;70542;-39
2021/11/04 08:18:57;;;;;;;;;;;;;;;33.95;55.48;100664.91;5070960;27;66649;-39
2021/11/04 08:21:35;;;;;;;;;;;;;;;33.98;54.91;100667.13;5070079;27;70459;-39
2021/11/04 08:24:21;;;;;;;;;;;;;;;34.01;55.15;100666.66;5061534;27;65799;-39
2021/11/04 08:27:05;;;;;;;;;;;;;;;34.03;55.57;100669.94;5070812;27;69574;-40
2021/11/04 08:29:39;;;;;;;;;;;;;;;34.06;55.26;100657.78;5071204;27;66965;-40
2021/11/04 08:32:15;;;;;;;;;;;;;;;34.08;54.86;100661.09;5071686;27;70254;-40
2021/11/04 08:35:03;;;;;;;;;;;;;;;34.09;55.07;100658.09;5074703;27;67268;-40
2021/11/04 08:38:00;;;;;;;;;;;;;;;34.08;54.60;100659.19;5068974;27;69446;-40
2021/11/04 08:40:46;;;;;;;;;;;;;;;34.14;54.86;100663.63;5066321;27;66386;-39
2021/11/04 08:43:23;;;;;;;;;;;;;;;34.17;54.60;100671.28;5068298;28;70165;-39
2021/11/04 08:45:57;;;;;;;;;;;;;;;34.19;54.82;100662.91;5069207;27;66069;-40
2021/11/04 08:48:31;;;;;;;;;;;;;;;34.22;54.36;100663.22;5070598;27;70210;-40
2021/11/04 08:51:05;;;;;;;;;;;;;;;34.23;54.54;100664.84;5067899;27;66406;-40
2021/11/04 08:53:41;;;;;;;;;;;;;;;34.26;54.44;100663.53;5078948;27;69507;-41
2021/11/04 08:56:25;;;;;;;;;;;;;;;34.20;54.40;100653.66;5076742;27;66154;-39
2021/11/04 08:59:09;;;;;;;;;;;;;;;34.31;54.24;100670.97;5062329;27;70749;-40
2021/11/04 09:01:41;;;;;;;;;;;;;;;34.34;53.92;100665.84;5051924;27;67435;-40
2021/11/04 09:04:19;;;;;;;;;;;;;;;34.37;53.99;100664.53;5043414;28;69767;-40
2021/11/04 09:06:53;;;;;;;;;;;;;;;34.39;54.29;100665.09;5033428;28;65530;-41
2021/11/04 09:09:35;;;;;;;;;;;;;;;34.41;54.24;100671.94;5066140;28;70172;-41
2021/11/04 09:12:05;;;;;;;;;;;;;;;34.43;53.88;100666.22;5064249;27;66595;-41
2021/11/04 09:14:38;;;;;;;;;;;;;;;34.42;53.73;100667.31;5073739;27;68380;-40
2021/11/04 09:17:13;;;;;;;;;;;;;;;34.43;54.23;100669.78;5054697;28;66239;-40
2021/11/04 09:19:56;;;;;;;;;;;;;;;34.43;54.00;100668.97;5055123;28;69110;-40
2021/11/04 09:22:29;;;;;;;;;;;;;;;34.43;53.84;100663.50;5057594;28;65725;-41
2021/11/04 09:25:02;;;;;;;;;;;;;;;34.44;53.30;100667.91;5054965;28;69259;-41
2021/11/04 09:27:34;;;;;;;;;;;;;;;34.43;53.34;100667.06;5057838;28;65852;-41
2021/11/04 09:30:13;;;;;;;;;;;;;;;34.43;53.40;100668.97;5055398;28;70665;-39
2021/11/04 09:32:46;;;;;;;;;;;;;;;34.40;53.41;100670.28;5048159;28;66324;-39
2021/11/04 09:35:17;;;;;;;;;;;;;;;34.44;53.71;100684.25;5055922;28;69975;-38
2021/11/04 09:37:52;;;;;;;;;;;;;;;34.44;53.43;100681.53;5056128;28;66093;-39
2021/11/04 09:40:22;;;;;;;;;;;;;;;34.42;53.27;100683.66;5055390;28;70168;-39
2021/11/04 09:43:00;;;;;;;;;;;;;;;34.41;53.20;100682.03;5047181;28;66723;-40
2021/11/04 09:45:41;;;;;;;;;;;;;;;34.41;53.26;100690.19;5056502;28;70081;-39
2021/11/04 09:48:17;;;;;;;;;;;;;;;34.41;53.21;100699.19;5056480;28;65393;-38
2021/11/04 09:50:52;;;;;;;;;;;;;;;34.40;53.43;100692.06;5056424;28;70054;-38
2021/11/04 09:53:27;;;;;;;;;;;;;;;34.38;53.23;100701.56;5056805;28;66626;-39
2021/11/04 09:55:59;;;;;;;;;;;;;;;34.38;53.39;100707.00;5059440;28;69891;-38
2021/11/04 09:58:34;;;;;;;;;;;;;;;34.37;53.51;100717.06;5045390;28;66159;-39
2021/11/04 10:01:24;;;;;;;;;;;;;;;34.37;53.62;100721.69;5054447;28;70064;-39
2021/11/04 10:03:58;;;;;;;;;;;;;;;34.36;53.27;100717.34;5055474;28;66019;-39
2021/11/04 10:06:30;;;;;;;;;;;;;;;34.33;53.37;100724.09;5054904;28;69789;-37
2021/11/04 10:09:03;;;;;;;;;;;;;;;34.28;52.45;100726.75;5054207;28;66957;-39
2021/11/04 10:11:46;;;;;;;;;;;;;;;34.29;52.63;100730.28;5051169;28;70110;-39
2021/11/04 10:14:21;;;;;;;;;;;;;;;34.27;52.28;100736.00;5050983;28;66973;-40
2021/11/04 10:16:51;;;;;;;;;;;;;;;34.25;52.54;100733.50;5055565;28;69027;-40
2021/11/04 10:19:25;;;;;;;;;;;;;;;34.24;52.70;100737.31;5052303;28;65203;-39
2021/11/04 10:21:57;;;;;;;;;;;;;;;34.50;52.12;100734.16;5053059;28;70254;-39
2021/11/04 10:24:31;;;;;;;;;;;;;;;34.39;52.72;100744.88;5053852;28;66625;-39
2021/11/04 10:27:03;;;;;;;;;;;;;;;34.30;53.77;100750.97;5054197;28;69905;-38
2021/11/04 10:29:37;;;;;;;;;;;;;;;34.21;54.31;100754.13;5057067;28;66325;-38
2021/11/04 10:32:10;;;;;;;;;;;;;;;34.10;54.98;100762.34;5056448;28;69586;-38
2021/11/04 10:34:41;;;;;;;;;;;;;;;33.89;55.98;100734.75;5052547;28;65346;-38
2021/11/04 10:37:19;;;;;;;;;;;;;;;34.02;56.68;100766.28;5056466;28;70407;-38
2021/11/04 10:39:49;;;;;;;;;;;;;;;33.97;57.22;100753.41;5041499;28;66247;-40
2021/11/04 10:42:19;;;;;;;;;;;;;;;33.93;56.00;100763.09;5050727;28;69847;-39
2021/11/04 10:44:51;;;;;;;;;;;;;;;33.85;56.75;100766.25;5049122;28;65685;-40
2021/11/04 10:47:26;;;;;;;;;;;;;;;33.81;57.15;100763.16;5049952;28;69914;-39
2021/11/04 10:49:59;;;;;;;;;;;;;;;33.79;57.42;100764.47;5058400;28;66977;-40
2021/11/04 10:52:29;;;;;;;;;;;;;;;33.76;58.12;100773.94;5052433;28;70220;-40
2021/11/04 10:55:14;;;;;;;;;;;;;;;33.74;57.91;100776.13;5054795;28;65794;-40
2021/11/04 10:57:47;;;;;;;;;;;;;;;33.67;58.18;100764.53;5051738;28;69682;-42
2021/11/04 11:00:21;;;;;;;;;;;;;;;33.69;58.30;100786.88;5050044;28;65516;-41
2021/11/04 11:03:10;;;;;;;;;;;;;;;33.66;58.52;100787.38;5053792;28;69085;-41
2021/11/04 11:05:42;;;;;;;;;;;;;;;33.65;58.75;100791.13;5053607;28;66536;-40
2021/11/04 11:08:14;;;;;;;;;;;;;;;33.65;59.16;100793.88;5058712;28;70033;-42
2021/11/04 11:10:48;;;;;;;;;;;;;;;33.62;59.70;100804.41;5052030;28;65691;-41
2021/11/04 11:13:25;;;;;;;;;;;;;;;33.62;59.95;100810.66;5052600;28;70266;-41
2021/11/04 11:15:56;;;;;;;;;;;;;;;33.62;59.85;100805.22;5054363;28;65739;-40
2021/11/04 11:18:27;;;;;;;;;;;;;;;33.58;60.30;100804.06;5051274;28;70197;-41
2021/11/04 11:21:03;;;;;;;;;;;;;;;33.54;60.45;100811.91;5044470;28;66641;-41
2021/11/04 11:23:34;;;;;;;;;;;;;;;33.53;60.77;100809.41;5053471;28;70429;-40
2021/11/04 11:26:38;;;;;;;;;;;;;;;33.50;60.72;100812.56;5052351;28;65662;-41
2021/11/04 11:29:16;;;;;;;;;;;;;;;33.48;60.98;100807.34;5049215;28;70233;-40
2021/11/04 11:31:52;;;;;;;;;;;;;;;33.47;61.20;100813.06;5054646;28;65427;-41
2021/11/04 11:34:27;;;;;;;;;;;;;;;33.50;61.27;100818.00;5051313;28;70020;-39
2021/11/04 11:37:12;;;;;;;;;;;;;;;33.44;61.30;100818.97;5054402;28;66555;-41
2021/11/04 11:40:09;;;;;;;;;;;;;;;33.42;61.46;100826.53;5053927;28;70031;-41
2021/11/04 11:43:16;;;;;;;;;;;;;;;33.41;61.35;100823.00;5050975;28;66110;-42
2021/11/04 11:46:03;;;;;;;;;;;;;;;33.34;61.49;100831.25;5000134;28;69484;-41
2021/11/04 11:48:34;;;;;;;;;;;;;;;33.36;61.69;100847.34;5061530;27;66490;-41
2021/11/04 11:51:08;;;;;;;;;;;;;;;33.33;62.02;100840.50;5048670;28;68902;-41
2021/11/04 11:53:49;;;;;;;;;;;;;;;33.30;61.97;100843.69;5062733;28;66435;-41
2021/11/04 11:56:23;;;;;;;;;;;;;;;33.30;62.37;100843.69;5050932;28;69382;-40
2021/11/04 11:59:17;;;;;;;;;;;;;;;33.26;63.04;100855.28;5043809;28;66060;-40
2021/11/04 12:01:50;;;;;;;;;;;;;;;33.27;63.09;100851.50;5049241;28;70349;-40
2021/11/04 12:04:33;;;;;;;;;;;;;;;33.22;62.61;100852.22;5055475;28;66251;-39
2021/11/04 12:07:27;;;;;;;;;;;;;;;33.08;61.05;100856.22;5055137;28;69508;-40
2021/11/04 12:10:01;;;;;;;;;;;;;;;32.86;60.07;100858.66;5055090;28;66575;-39
2021/11/04 12:12:43;;;;;;;;;;;;;;;32.64;59.59;100866.53;5056338;28;70265;-40
2021/11/04 12:15:28;;;;;;;;;;;;;;;32.52;59.67;100855.66;5052109;28;66262;-39
2021/11/04 12:18:11;;;;;;;;;;;;;;;32.42;58.57;100860.78;5054566;28;68889;-40
2021/11/04 12:21:05;;;;;;;;;;;;;;;32.33;57.44;100868.41;5055890;28;66771;-40
2021/11/04 12:23:48;;;;;;;;;;;;;;;32.20;57.31;100868.59;5054942;28;70542;-39
2021/11/04 12:26:33;;;;;;;;;;;;;;;32.12;56.84;100871.63;5054094;28;66571;-40
2021/11/04 12:29:23;;;;;;;;;;;;;;;32.07;56.75;100874.19;5053967;28;69484;-40
2021/11/04 12:32:13;;;;;;;;;;;;;;;31.95;56.89;100882.28;5049527;28;66582;-39
2021/11/04 12:35:06;;;;;;;;;;;;;;;31.87;56.75;100885.25;5056393;28;70376;-39
2021/11/04 12:37:37;;;;;;;;;;;;;;;31.82;56.32;100884.06;5068565;27;66082;-40
2021/11/04 12:40:25;;;;;;;;;;;;;;;31.81;56.25;100892.44;5052392;28;70076;-40
2021/11/04 12:43:13;;;;;;;;;;;;;;;31.76;55.54;100894.97;5057887;28;65349;-39
2021/11/04 12:46:16;;;;;;;;;;;;;;;31.73;55.61;100906.28;5058330;28;69200;-39
2021/11/04 12:49:08;;;;;;;;;;;;;;;31.72;54.44;100901.94;5056535;28;66385;-39
2021/11/04 12:51:56;;;;;;;;;;;;;;;31.66;54.37;100894.69;5058586;28;69635;-38
2021/11/04 12:54:36;;;;;;;;;;;;;;;31.60;53.88;100908.09;5054755;28;65756;-41
2021/11/04 12:57:08;;;;;;;;;;;;;;;31.60;53.56;100913.53;5052160;28;69810;-40
2021/11/04 12:59:49;;;;;;;;;;;;;;;31.61;53.17;100909.75;5072924;27;65769;-39
2021/11/04 13:02:30;;;;;;;;;;;;;;;31.52;54.10;100910.28;5056663;28;70758;-40
2021/11/04 13:05:19;;;;;;;;;;;;;;;31.47;53.89;100919.06;5050384;28;65971;-38
2021/11/04 13:08:08;;;;;;;;;;;;;;;31.44;54.31;100913.28;5058098;27;70586;-40
2021/11/04 13:10:46;;;;;;;;;;;;;;;31.44;54.11;100908.69;5049048;28;66294;-40
2021/11/04 13:13:44;;;;;;;;;;;;;;;31.46;54.10;100917.44;5034967;28;68918;-42
2021/11/04 13:16:32;;;;;;;;;;;;;;;31.52;53.47;100926.53;5044126;28;66487;-40
2021/11/04 13:19:24;;;;;;;;;;;;;;;31.45;53.46;100929.31;5040420;28;69259;-40
2021/11/04 13:22:08;;;;;;;;;;;;;;;31.50;53.08;100934.06;5048807;28;66429;-40
2021/11/04 13:25:02;;;;;;;;;;;;;;;31.51;52.64;100930.28;5049586;28;70142;-39
2021/11/04 13:27:52;;;;;;;;;;;;;;;31.44;54.03;100932.25;5049317;28;65702;-40
2021/11/04 13:31:17;;;;;;;;;;;;;;;31.41;53.35;100932.69;5054692;28;70274;-39
2021/11/04 13:34:07;;;;;;;;;;;;;;;31.37;52.80;100940.44;5055975;28;66483;-40
2021/11/04 13:37:29;;;;;;;;;;;;;;;31.36;53.57;100945.03;5050471;28;69498;-41
2021/11/04 13:40:14;;;;;;;;;;;;;;;31.34;54.35;100941.69;5053009;28;66676;-40
2021/11/04 13:43:05;;;;;;;;;;;;;;;31.25;54.84;100936.75;5077587;27;69345;-40